Time;durP1;ratioP1;P1;durP2;ratioP2;P2;SDS_P1;SDS_P2;PMS_P1;PMS_P2;Temp;Humidity;BMP_temperature;BMP_pressure;BME280_temperature;BME280_humidity;BME280_pressure;Samples;Min_cycle;Max_cycle;Signal;HPM_P1;HPM_P2
2022/04/24 00:00:05;;;;;;;9.57;7.35;;;;;;;;;;5107252;28;20044;-85
2022/04/24 00:02:32;;;;;;;10.63;7.70;;;;;;;;;;5106044;28;20077;-83
2022/04/24 00:04:58;;;;;;;8.63;7.15;;;;;;;;;;5111017;27;20480;-85
2022/04/24 00:07:24;;;;;;;9.48;7.50;;;;;;;;;;5088465;28;20475;-84
2022/04/24 00:09:50;;;;;;;13.05;7.47;;;;;;;;;;5103623;28;20395;-84
2022/04/24 00:12:17;;;;;;;10.60;7.25;;;;;;;;;;5105551;28;20035;-84
2022/04/24 00:14:44;;;;;;;7.72;6.93;;;;;;;;;;5106377;28;20035;-87
2022/04/24 00:17:11;;;;;;;14.15;7.60;;;;;;;;;;5104041;28;20111;-85
2022/04/24 00:19:37;;;;;;;8.88;7.53;;;;;;;;;;5105682;28;20040;-84
2022/04/24 00:22:03;;;;;;;8.93;7.53;;;;;;;;;;5102582;28;20130;-84
2022/04/24 00:24:29;;;;;;;7.47;6.78;;;;;;;;;;5104707;28;20097;-85
2022/04/24 00:26:55;;;;;;;9.73;7.57;;;;;;;;;;5098483;28;20043;-85
2022/04/24 00:29:21;;;;;;;12.00;8.27;;;;;;;;;;5105388;28;20046;-85
2022/04/24 00:31:47;;;;;;;9.20;7.22;;;;;;;;;;5106385;28;20031;-81
2022/04/24 00:34:13;;;;;;;8.45;7.55;;;;;;;;;;5103306;28;20039;-85
2022/04/24 00:36:40;;;;;;;8.68;7.88;;;;;;;;;;5103404;28;20031;-86
2022/04/24 00:39:06;;;;;;;8.45;7.63;;;;;;;;;;5103360;28;20038;-87
2022/04/24 00:41:34;;;;;;;8.60;7.63;;;;;;;;;;5104651;28;20860;-86
2022/04/24 00:44:00;;;;;;;14.35;7.90;;;;;;;;;;5102979;28;21895;-87
2022/04/24 00:46:29;;;;;;;12.25;7.60;;;;;;;;;;5104996;28;20050;-85
2022/04/24 00:48:55;;;;;;;9.57;7.63;;;;;;;;;;5109160;28;20071;-79
2022/04/24 00:51:22;;;;;;;8.75;7.88;;;;;;;;;;5114768;28;20028;-79
2022/04/24 00:53:48;;;;;;;7.97;7.18;;;;;;;;;;5113933;28;20123;-79
2022/04/24 00:56:14;;;;;;;8.77;7.90;;;;;;;;;;5103330;28;20031;-80
2022/04/24 00:58:41;;;;;;;9.57;7.45;;;;;;;;;;5103349;28;20407;-79
2022/04/24 01:01:07;;;;;;;11.25;7.47;;;;;;;;;;5101895;28;20078;-81
2022/04/24 01:03:33;;;;;;;9.90;8.90;;;;;;;;;;5102173;28;20063;-80
2022/04/24 01:05:59;;;;;;;9.65;8.65;;;;;;;;;;5098950;28;20123;-81
2022/04/24 01:08:25;;;;;;;12.70;7.72;;;;;;;;;;5105534;28;20107;-79
2022/04/24 01:10:51;;;;;;;10.13;7.10;;;;;;;;;;5085099;28;20138;-79
2022/04/24 01:13:17;;;;;;;10.05;7.95;;;;;;;;;;5103046;28;20050;-79
2022/04/24 01:15:44;;;;;;;8.98;8.07;;;;;;;;;;5105186;28;20047;-83
2022/04/24 01:18:10;;;;;;;11.02;8.25;;;;;;;;;;5101558;28;20041;-79
2022/04/24 01:20:36;;;;;;;11.82;7.82;;;;;;;;;;5103861;28;20040;-80
2022/04/24 01:23:03;;;;;;;9.13;7.57;;;;;;;;;;5101988;28;20035;-78
2022/04/24 01:25:29;;;;;;;9.60;7.90;;;;;;;;;;5102368;28;20035;-80
2022/04/24 01:27:55;;;;;;;11.23;7.88;;;;;;;;;;5104183;28;20074;-80
2022/04/24 01:30:21;;;;;;;10.38;7.85;;;;;;;;;;5100814;28;20044;-80
2022/04/24 01:32:47;;;;;;;10.43;7.63;;;;;;;;;;5093831;28;20039;-79
2022/04/24 01:35:15;;;;;;;8.52;7.07;;;;;;;;;;5101621;28;20135;-79
2022/04/24 01:37:44;;;;;;;9.07;8.18;;;;;;;;;;5101327;28;20546;-81
2022/04/24 01:40:11;;;;;;;10.50;7.75;;;;;;;;;;5101519;28;20410;-79
2022/04/24 01:42:37;;;;;;;11.50;8.20;;;;;;;;;;5104597;28;20130;-82
2022/04/24 01:45:03;;;;;;;8.95;7.40;;;;;;;;;;5102044;28;20036;-80
2022/04/24 01:47:29;;;;;;;9.63;7.72;;;;;;;;;;5100604;28;20039;-79
2022/04/24 01:49:55;;;;;;;10.13;8.20;;;;;;;;;;5104161;28;20039;-80
2022/04/24 01:52:21;;;;;;;9.50;8.05;;;;;;;;;;5102802;28;20077;-81
2022/04/24 01:54:47;;;;;;;8.98;7.82;;;;;;;;;;5100467;28;20040;-79
2022/04/24 01:57:13;;;;;;;9.00;7.93;;;;;;;;;;5103231;28;20066;-82
2022/04/24 01:59:39;;;;;;;8.60;7.70;;;;;;;;;;5102842;28;20180;-79
2022/04/24 02:02:05;;;;;;;8.63;7.65;;;;;;;;;;5100810;28;20119;-78
2022/04/24 02:04:31;;;;;;;13.85;8.18;;;;;;;;;;5104691;28;20059;-79
2022/04/24 02:06:57;;;;;;;8.57;7.68;;;;;;;;;;5084808;28;20036;-86
2022/04/24 02:09:23;;;;;;;9.07;8.18;;;;;;;;;;5103966;28;20035;-80
2022/04/24 02:11:49;;;;;;;9.90;7.55;;;;;;;;;;5108274;28;20162;-80
2022/04/24 02:14:15;;;;;;;10.13;7.45;;;;;;;;;;5105055;28;20051;-80
2022/04/24 02:16:41;;;;;;;8.88;7.93;;;;;;;;;;5108601;28;20039;-80
2022/04/24 02:19:07;;;;;;;9.70;7.15;;;;;;;;;;5106240;28;20035;-80
2022/04/24 02:21:34;;;;;;;10.05;7.70;;;;;;;;;;5108602;28;20043;-79
2022/04/24 02:24:00;;;;;;;10.90;7.30;;;;;;;;;;5105902;28;20503;-80
2022/04/24 02:26:26;;;;;;;9.55;7.68;;;;;;;;;;5104939;28;20047;-79
2022/04/24 02:28:52;;;;;;;10.05;7.28;;;;;;;;;;5106789;28;20117;-79
2022/04/24 02:31:18;;;;;;;9.68;7.40;;;;;;;;;;5105625;28;20055;-81
2022/04/24 02:33:44;;;;;;;10.05;7.43;;;;;;;;;;5110161;27;20039;-81
2022/04/24 02:36:10;;;;;;;10.52;7.43;;;;;;;;;;5115556;28;20036;-79
2022/04/24 02:38:36;;;;;;;9.07;7.68;;;;;;;;;;5127734;28;20039;-80
2022/04/24 02:41:02;;;;;;;10.25;7.55;;;;;;;;;;5109672;28;20043;-80
2022/04/24 02:43:28;;;;;;;9.98;7.35;;;;;;;;;;5105801;28;20052;-82
2022/04/24 02:45:54;;;;;;;8.55;7.03;;;;;;;;;;5105029;28;20123;-80
2022/04/24 02:48:22;;;;;;;12.57;8.27;;;;;;;;;;5105420;28;20057;-82
2022/04/24 02:50:48;;;;;;;11.57;7.22;;;;;;;;;;5105128;28;20107;-80
2022/04/24 02:53:15;;;;;;;8.00;7.20;;;;;;;;;;5105504;28;20088;-80
2022/04/24 02:55:41;;;;;;;9.98;7.60;;;;;;;;;;5108047;28;20040;-80
2022/04/24 02:58:07;;;;;;;9.32;7.60;;;;;;;;;;5104532;28;20075;-81
2022/04/24 03:00:50;;;;;;;9.50;7.82;;;;;;;;;;5106984;28;20062;-83
2022/04/24 03:03:19;;;;;;;10.20;7.78;;;;;;;;;;5104107;27;20514;-79
2022/04/24 03:05:49;;;;;;;10.43;7.57;;;;;;;;;;5106879;28;20586;-79
2022/04/24 03:08:15;;;;;;;9.82;7.93;;;;;;;;;;5107837;28;20533;-80
2022/04/24 03:10:41;;;;;;;13.75;7.38;;;;;;;;;;5105035;28;20499;-79
2022/04/24 03:13:08;;;;;;;8.88;7.47;;;;;;;;;;5103408;28;20043;-80
2022/04/24 03:15:36;;;;;;;9.00;7.30;;;;;;;;;;5104905;28;20055;-81
2022/04/24 03:18:02;;;;;;;8.75;7.25;;;;;;;;;;5107015;28;20497;-81
2022/04/24 03:20:29;;;;;;;10.02;7.05;;;;;;;;;;5087417;28;20487;-81
2022/04/24 03:22:55;;;;;;;9.43;7.43;;;;;;;;;;5106221;28;20105;-80
2022/04/24 03:25:21;;;;;;;9.82;7.68;;;;;;;;;;5107253;28;20130;-81
2022/04/24 03:27:47;;;;;;;12.18;7.88;;;;;;;;;;5104506;28;20590;-80
2022/04/24 03:30:13;;;;;;;12.27;7.80;;;;;;;;;;5105899;28;20587;-81
2022/04/24 03:32:39;;;;;;;9.68;8.30;;;;;;;;;;5083047;28;20036;-82
2022/04/24 03:35:06;;;;;;;12.25;7.97;;;;;;;;;;5105674;28;20035;-79
2022/04/24 03:37:32;;;;;;;9.98;8.20;;;;;;;;;;5103780;28;20067;-80
2022/04/24 03:39:59;;;;;;;12.20;8.68;;;;;;;;;;5103433;28;20086;-82
2022/04/24 03:42:26;;;;;;;18.25;9.13;;;;;;;;;;5101873;28;20141;-82
2022/04/24 03:44:55;;;;;;;14.88;9.20;;;;;;;;;;5104391;28;20051;-80
2022/04/24 03:47:22;;;;;;;12.68;8.85;;;;;;;;;;5104949;28;20039;-81
2022/04/24 03:49:48;;;;;;;10.60;8.18;;;;;;;;;;5102175;28;20036;-82
2022/04/24 03:52:14;;;;;;;13.88;9.48;;;;;;;;;;5104929;27;20109;-80
2022/04/24 03:54:40;;;;;;;12.30;9.25;;;;;;;;;;5103608;28;20055;-80
2022/04/24 03:57:06;;;;;;;16.75;10.20;;;;;;;;;;5104452;28;20148;-81
2022/04/24 03:59:32;;;;;;;15.25;10.65;;;;;;;;;;5103069;28;20060;-80
2022/04/24 04:01:59;;;;;;;12.10;9.50;;;;;;;;;;5103631;28;20573;-79
2022/04/24 04:04:28;;;;;;;12.30;10.23;;;;;;;;;;5104926;28;20050;-79
2022/04/24 04:06:54;;;;;;;12.73;10.35;;;;;;;;;;5102249;27;20050;-81
2022/04/24 04:09:20;;;;;;;15.80;10.23;;;;;;;;;;5103199;28;20384;-79
2022/04/24 04:11:46;;;;;;;13.68;10.60;;;;;;;;;;5101588;28;20475;-81
2022/04/24 04:14:12;;;;;;;14.20;10.05;;;;;;;;;;5104413;27;20390;-80
2022/04/24 04:16:38;;;;;;;16.90;10.98;;;;;;;;;;5083632;28;20534;-82
2022/04/24 04:19:04;;;;;;;14.60;10.48;;;;;;;;;;5102531;27;20103;-79
2022/04/24 04:21:30;;;;;;;16.02;11.07;;;;;;;;;;5101984;27;20039;-80
2022/04/24 04:23:56;;;;;;;15.88;9.45;;;;;;;;;;5100229;27;20032;-80
2022/04/24 04:26:22;;;;;;;13.40;10.05;;;;;;;;;;5102911;28;20049;-80
2022/04/24 04:28:48;;;;;;;14.35;9.93;;;;;;;;;;5101112;27;20414;-80
2022/04/24 04:31:15;;;;;;;14.55;9.98;;;;;;;;;;5100519;28;20119;-80
2022/04/24 04:33:41;;;;;;;12.60;10.00;;;;;;;;;;5098420;27;20062;-80
2022/04/24 04:36:08;;;;;;;20.23;11.00;;;;;;;;;;5101138;28;20561;-81
2022/04/24 04:38:34;;;;;;;15.20;11.25;;;;;;;;;;5106211;27;20537;-80
2022/04/24 04:41:00;;;;;;;16.33;11.57;;;;;;;;;;5102844;28;20138;-80
2022/04/24 04:43:27;;;;;;;17.65;11.77;;;;;;;;;;5103567;27;20047;-80
2022/04/24 04:45:53;;;;;;;15.80;10.95;;;;;;;;;;5100025;28;20674;-79
2022/04/24 04:48:20;;;;;;;18.67;10.65;;;;;;;;;;5100464;28;20050;-82
2022/04/24 04:50:46;;;;;;;13.05;10.15;;;;;;;;;;5101205;28;20039;-81
2022/04/24 04:53:12;;;;;;;16.40;10.35;;;;;;;;;;5102772;28;20063;-81
2022/04/24 04:55:38;;;;;;;16.10;11.43;;;;;;;;;;5103167;28;20132;-80
2022/04/24 04:58:04;;;;;;;18.33;11.63;;;;;;;;;;5101493;28;20044;-81
2022/04/24 05:00:30;;;;;;;13.65;10.23;;;;;;;;;;5102595;28;20050;-80
2022/04/24 05:02:56;;;;;;;13.20;9.70;;;;;;;;;;5101083;28;20103;-82
2022/04/24 05:05:22;;;;;;;15.30;10.88;;;;;;;;;;5102484;28;20044;-80
2022/04/24 05:07:49;;;;;;;13.18;9.02;;;;;;;;;;5100674;28;20306;-80
2022/04/24 05:10:15;;;;;;;12.23;9.48;;;;;;;;;;5104586;28;20043;-81
2022/04/24 05:12:47;;;;;;;15.50;9.77;;;;;;;;;;5103861;28;20032;-82
2022/04/24 05:15:14;;;;;;;15.40;9.27;;;;;;;;;;5103936;28;20051;-80
2022/04/24 05:17:41;;;;;;;13.38;7.85;;;;;;;;;;5103821;28;20111;-80
2022/04/24 05:20:08;;;;;;;17.02;8.40;;;;;;;;;;5103703;28;20796;-80
2022/04/24 05:22:35;;;;;;;14.35;8.43;;;;;;;;;;5104551;28;20072;-81
2022/04/24 05:25:01;;;;;;;13.32;7.95;;;;;;;;;;5101552;28;20407;-80
2022/04/24 05:27:28;;;;;;;16.60;8.25;;;;;;;;;;5106531;28;20050;-82
2022/04/24 05:29:55;;;;;;;9.15;6.93;;;;;;;;;;5102859;28;20035;-81
2022/04/24 05:32:21;;;;;;;10.90;7.07;;;;;;;;;;5105431;28;20175;-82
2022/04/24 05:34:47;;;;;;;11.40;6.40;;;;;;;;;;5105497;28;20031;-82
2022/04/24 05:37:13;;;;;;;10.93;6.15;;;;;;;;;;5104032;28;20134;-82
2022/04/24 05:39:39;;;;;;;8.38;5.80;;;;;;;;;;5104765;28;20411;-80
2022/04/24 05:42:06;;;;;;;7.07;5.57;;;;;;;;;;5103741;28;20043;-84
2022/04/24 05:44:32;;;;;;;10.35;6.18;;;;;;;;;;5108904;27;20105;-83
2022/04/24 05:46:59;;;;;;;8.15;6.32;;;;;;;;;;5103027;28;20119;-83
2022/04/24 05:49:25;;;;;;;8.90;6.10;;;;;;;;;;5105170;27;20100;-80
2022/04/24 05:51:51;;;;;;;11.35;5.07;;;;;;;;;;5104461;28;20044;-80
2022/04/24 05:54:17;;;;;;;8.73;5.20;;;;;;;;;;5107665;28;20135;-83
2022/04/24 05:56:43;;;;;;;9.73;5.45;;;;;;;;;;5107409;28;20075;-83
2022/04/24 05:59:10;;;;;;;10.27;4.57;;;;;;;;;;5105178;27;20035;-82
2022/04/24 06:01:36;;;;;;;9.52;5.10;;;;;;;;;;5082363;28;20044;-82
2022/04/24 06:04:02;;;;;;;9.63;4.38;;;;;;;;;;5104417;28;20051;-79
2022/04/24 06:06:30;;;;;;;6.75;4.07;;;;;;;;;;5107439;27;20135;-79
2022/04/24 06:08:57;;;;;;;9.98;4.43;;;;;;;;;;5105983;27;20327;-81
2022/04/24 06:11:23;;;;;;;5.40;3.92;;;;;;;;;;5104833;28;20188;-79
2022/04/24 06:13:49;;;;;;;7.80;3.78;;;;;;;;;;5105726;28;20107;-82
2022/04/24 06:16:15;;;;;;;8.38;4.20;;;;;;;;;;5108467;28;20143;-81
2022/04/24 06:18:41;;;;;;;13.02;4.30;;;;;;;;;;5105067;27;20051;-84
2022/04/24 06:21:07;;;;;;;11.05;3.90;;;;;;;;;;5107060;27;20047;-84
2022/04/24 06:23:33;;;;;;;7.15;4.15;;;;;;;;;;5107549;27;20066;-81
2022/04/24 06:25:59;;;;;;;7.07;4.22;;;;;;;;;;5105337;28;20035;-81
2022/04/24 06:28:25;;;;;;;6.45;3.63;;;;;;;;;;5106278;28;20096;-80
2022/04/24 06:30:51;;;;;;;7.63;4.15;;;;;;;;;;5109116;27;20550;-82
2022/04/24 06:33:18;;;;;;;7.82;3.72;;;;;;;;;;5104093;28;20036;-85
2022/04/24 06:35:45;;;;;;;8.25;3.50;;;;;;;;;;5098733;28;20476;-83
2022/04/24 06:38:11;;;;;;;5.25;3.50;;;;;;;;;;5104597;27;20048;-81
2022/04/24 06:40:40;;;;;;;8.10;4.07;;;;;;;;;;5102107;28;20492;-81
2022/04/24 06:43:10;;;;;;;7.80;3.90;;;;;;;;;;5112807;27;20073;-83
2022/04/24 06:45:43;;;;;;;6.38;3.90;;;;;;;;;;5102301;28;20039;-80
2022/04/24 06:48:16;;;;;;;10.57;4.45;;;;;;;;;;5086281;28;20602;-80
2022/04/24 06:50:44;;;;;;;9.77;4.53;;;;;;;;;;5107214;27;20303;-82
2022/04/24 06:53:11;;;;;;;8.75;4.30;;;;;;;;;;5101254;27;20039;-82
2022/04/24 06:55:39;;;;;;;5.07;3.60;;;;;;;;;;5104630;28;20032;-83
2022/04/24 06:58:08;;;;;;;8.38;4.15;;;;;;;;;;5106331;28;20043;-82
2022/04/24 07:00:38;;;;;;;11.10;4.20;;;;;;;;;;5101863;28;20641;-82
2022/04/24 07:03:11;;;;;;;8.73;4.28;;;;;;;;;;5101037;27;20044;-81
2022/04/24 07:05:38;;;;;;;8.95;4.25;;;;;;;;;;5117373;27;20040;-80
2022/04/24 07:08:04;;;;;;;7.97;4.10;;;;;;;;;;5120526;27;20080;-81
2022/04/24 07:10:30;;;;;;;6.40;3.90;;;;;;;;;;5105591;28;20526;-82
2022/04/24 07:12:56;;;;;;;6.82;4.18;;;;;;;;;;5102775;28;20524;-80
2022/04/24 07:15:24;;;;;;;11.07;4.90;;;;;;;;;;5105841;28;20119;-80
2022/04/24 07:17:51;;;;;;;7.57;4.30;;;;;;;;;;5102118;27;20086;-80
2022/04/24 07:20:21;;;;;;;10.77;4.90;;;;;;;;;;5105280;28;20122;-80
2022/04/24 07:23:03;;;;;;;10.90;4.60;;;;;;;;;;5092718;28;20096;-83
2022/04/24 07:25:32;;;;;;;5.75;4.13;;;;;;;;;;5102495;27;20637;-81
2022/04/24 07:27:59;;;;;;;6.35;4.22;;;;;;;;;;5102655;27;20035;-80
2022/04/24 07:30:25;;;;;;;8.50;4.22;;;;;;;;;;5105499;28;20047;-79
2022/04/24 07:32:52;;;;;;;8.77;4.28;;;;;;;;;;5105121;27;20047;-85
2022/04/24 07:35:21;;;;;;;10.02;3.88;;;;;;;;;;5105363;27;20414;-83
2022/04/24 07:37:48;;;;;;;8.15;3.70;;;;;;;;;;5110178;27;20120;-79
2022/04/24 07:40:15;;;;;;;6.78;4.20;;;;;;;;;;5101399;27;20063;-80
2022/04/24 07:42:45;;;;;;;10.93;4.82;;;;;;;;;;5107726;27;20502;-80
2022/04/24 07:45:11;;;;;;;6.03;4.40;;;;;;;;;;5113752;27;20071;-81
2022/04/24 07:47:37;;;;;;;5.93;4.10;;;;;;;;;;5104002;28;20100;-80
2022/04/24 07:50:04;;;;;;;8.82;4.50;;;;;;;;;;5103816;28;20047;-84
2022/04/24 07:52:30;;;;;;;6.45;4.32;;;;;;;;;;5104133;27;20939;-87
2022/04/24 07:54:56;;;;;;;7.82;4.55;;;;;;;;;;5106477;27;20515;-80
2022/04/24 07:57:22;;;;;;;10.80;4.38;;;;;;;;;;5087393;27;20043;-82
2022/04/24 07:59:48;;;;;;;8.88;4.20;;;;;;;;;;5106371;27;20046;-81
2022/04/24 08:02:14;;;;;;;8.38;4.25;;;;;;;;;;5102049;27;20047;-79
2022/04/24 08:04:40;;;;;;;8.20;4.50;;;;;;;;;;5105827;27;20048;-83
2022/04/24 08:07:07;;;;;;;6.90;4.75;;;;;;;;;;5102926;28;20047;-83
2022/04/24 08:09:33;;;;;;;7.75;3.75;;;;;;;;;;5106745;27;20583;-79
2022/04/24 08:12:01;;;;;;;7.18;4.20;;;;;;;;;;5104853;27;20114;-80
2022/04/24 08:14:27;;;;;;;8.98;3.92;;;;;;;;;;5100558;27;20048;-79
2022/04/24 08:16:53;;;;;;;6.10;4.10;;;;;;;;;;5104891;27;20085;-84
2022/04/24 08:19:21;;;;;;;8.20;4.40;;;;;;;;;;5098494;27;20039;-85
2022/04/24 08:21:47;;;;;;;7.07;4.13;;;;;;;;;;5103445;27;20495;-79
2022/04/24 08:24:13;;;;;;;6.82;3.70;;;;;;;;;;5092134;28;20395;-81
2022/04/24 08:26:39;;;;;;;7.85;4.05;;;;;;;;;;5103166;27;20430;-81
2022/04/24 08:29:05;;;;;;;6.63;4.13;;;;;;;;;;5082492;28;20071;-78
2022/04/24 08:31:31;;;;;;;8.45;3.80;;;;;;;;;;5119564;28;20035;-80
2022/04/24 08:33:57;;;;;;;6.47;4.35;;;;;;;;;;5125095;27;20095;-79
2022/04/24 08:36:26;;;;;;;5.80;3.60;;;;;;;;;;5124044;27;20024;-79
2022/04/24 08:38:52;;;;;;;8.13;3.60;;;;;;;;;;5116304;27;20054;-81
2022/04/24 08:41:21;;;;;;;6.70;3.47;;;;;;;;;;5102151;28;20146;-80
2022/04/24 08:43:47;;;;;;;8.45;4.15;;;;;;;;;;5104436;27;20040;-79
2022/04/24 08:46:13;;;;;;;15.25;3.42;;;;;;;;;;5103269;28;20150;-80
2022/04/24 08:48:41;;;;;;;9.70;3.70;;;;;;;;;;5103454;27;20040;-79
2022/04/24 08:51:10;;;;;;;9.32;3.80;;;;;;;;;;5101709;28;20395;-84
2022/04/24 08:53:36;;;;;;;7.57;3.33;;;;;;;;;;5098713;28;20369;-79
2022/04/24 08:56:03;;;;;;;7.15;3.00;;;;;;;;;;5105496;28;20059;-79
2022/04/24 08:58:30;;;;;;;3.40;2.75;;;;;;;;;;5105962;28;20044;-82
2022/04/24 09:00:57;;;;;;;4.32;3.10;;;;;;;;;;5100134;27;20447;-78
2022/04/24 09:03:23;;;;;;;5.03;3.00;;;;;;;;;;5101338;28;20040;-79
2022/04/24 09:05:49;;;;;;;4.88;2.90;;;;;;;;;;5099380;28;20044;-78
2022/04/24 09:08:15;;;;;;;4.38;2.67;;;;;;;;;;5098799;28;20107;-79
2022/04/24 09:10:51;;;;;;;6.18;3.08;;;;;;;;;;5096129;28;20043;-79
2022/04/24 09:13:31;;;;;;;5.15;3.25;;;;;;;;;;5102671;28;20555;-78
2022/04/24 09:15:58;;;;;;;4.47;2.65;;;;;;;;;;5100469;28;20040;-79
2022/04/24 09:18:36;;;;;;;5.97;3.00;;;;;;;;;;5102136;27;20039;-79
2022/04/24 09:21:02;;;;;;;6.20;2.95;;;;;;;;;;5104843;27;20123;-79
2022/04/24 09:23:37;;;;;;;6.38;3.17;;;;;;;;;;5103756;27;20055;-78
2022/04/24 09:26:04;;;;;;;8.48;3.63;;;;;;;;;;5110325;28;20051;-79
2022/04/24 09:28:40;;;;;;;8.43;3.50;;;;;;;;;;5109268;27;20047;-79
2022/04/24 09:31:06;;;;;;;6.65;3.00;;;;;;;;;;5099748;27;20048;-79
2022/04/24 09:33:51;;;;;;;4.78;2.97;;;;;;;;;;5106582;27;20030;-79
2022/04/24 09:36:18;;;;;;;5.00;3.20;;;;;;;;;;5100346;28;20495;-78
2022/04/24 09:38:45;;;;;;;6.38;3.53;;;;;;;;;;5109185;28;20504;-80
2022/04/24 09:41:15;;;;;;;8.15;3.65;;;;;;;;;;5105236;27;20073;-78
2022/04/24 09:43:42;;;;;;;7.57;3.40;;;;;;;;;;5105950;27;20078;-78
2022/04/24 09:46:08;;;;;;;6.72;3.28;;;;;;;;;;5093327;27;20063;-79
2022/04/24 09:48:34;;;;;;;6.57;3.10;;;;;;;;;;5100125;27;20039;-79
2022/04/24 09:51:00;;;;;;;20.55;3.42;;;;;;;;;;5105573;27;20115;-80
2022/04/24 09:53:28;;;;;;;6.93;3.50;;;;;;;;;;5102884;27;20058;-78
2022/04/24 09:55:55;;;;;;;4.38;3.03;;;;;;;;;;5102668;27;20032;-78
2022/04/24 09:58:21;;;;;;;8.00;2.97;;;;;;;;;;5104753;27;20039;-78
2022/04/24 10:00:50;;;;;;;5.90;2.63;;;;;;;;;;5107525;27;20920;-78
2022/04/24 10:03:17;;;;;;;3.70;2.38;;;;;;;;;;5101814;27;20051;-77
2022/04/24 10:05:45;;;;;;;4.18;2.42;;;;;;;;;;5104605;28;20043;-78
2022/04/24 10:08:13;;;;;;;7.28;2.60;;;;;;;;;;5069397;28;20050;-78
2022/04/24 10:10:39;;;;;;;4.68;2.38;;;;;;;;;;5106320;27;20046;-79
2022/04/24 10:13:06;;;;;;;5.70;2.90;;;;;;;;;;5104685;28;20035;-79
2022/04/24 10:15:33;;;;;;;4.82;2.78;;;;;;;;;;5101702;27;20469;-78
2022/04/24 10:18:22;;;;;;;4.72;2.72;;;;;;;;;;5106255;27;20067;-83
2022/04/24 10:20:48;;;;;;;5.18;3.38;;;;;;;;;;5099185;27;20082;-88
2022/04/24 10:23:14;;;;;;;3.38;2.60;;;;;;;;;;5103949;27;20280;-84
2022/04/24 10:25:41;;;;;;;6.72;3.03;;;;;;;;;;5102238;27;20182;-89
2022/04/24 10:28:18;;;;;;;16.90;3.30;;;;;;;;;;5118210;27;20059;-83
2022/04/24 10:30:46;;;;;;;7.75;4.32;;;;;;;;;;5101067;28;20048;-89
2022/04/24 10:33:13;;;;;;;15.15;3.63;;;;;;;;;;5104333;27;20168;-87
2022/04/24 10:35:50;;;;;;;10.32;3.28;;;;;;;;;;5104411;27;20032;-82
2022/04/24 10:38:18;;;;;;;6.90;3.00;;;;;;;;;;5105988;27;20035;-86
2022/04/24 10:41:00;;;;;;;9.00;3.03;;;;;;;;;;5122761;27;20051;-87
2022/04/24 10:43:34;;;;;;;6.50;3.22;;;;;;;;;;5100087;28;20051;-81
2022/04/24 10:46:02;;;;;;;7.68;3.53;;;;;;;;;;5101540;27;20043;-80
2022/04/24 10:48:35;;;;;;;7.00;3.30;;;;;;;;;;5104636;27;20084;-83
2022/04/24 10:51:01;;;;;;;5.03;3.72;;;;;;;;;;5105664;27;20042;-89
2022/04/24 10:53:27;;;;;;;11.88;4.20;;;;;;;;;;5112444;27;20536;-83
2022/04/24 10:56:04;;;;;;;5.72;3.67;;;;;;;;;;5109135;27;20411;-85
2022/04/24 10:58:30;;;;;;;8.50;3.70;;;;;;;;;;5092091;28;20085;-85
2022/04/24 11:01:08;;;;;;;5.68;3.97;;;;;;;;;;5106621;28;20044;-83
2022/04/24 11:03:44;;;;;;;10.63;4.13;;;;;;;;;;5104232;28;20072;-82
2022/04/24 11:06:20;;;;;;;6.45;4.07;;;;;;;;;;5113123;28;20024;-84
2022/04/24 11:08:46;;;;;;;98.47;17.42;;;;;;;;;;5120950;27;20133;-85
2022/04/24 11:11:16;;;;;;;9.95;3.95;;;;;;;;;;5123518;27;20043;-85
2022/04/24 11:13:42;;;;;;;14.48;4.38;;;;;;;;;;5108317;27;20521;-80
2022/04/24 11:16:09;;;;;;;8.63;4.32;;;;;;;;;;5103522;27;20085;-79
2022/04/24 11:18:36;;;;;;;19.15;5.05;;;;;;;;;;5109260;27;20488;-78
2022/04/24 11:21:06;;;;;;;44.00;5.85;;;;;;;;;;5103494;28;20032;-82
2022/04/24 11:23:35;;;;;;;13.43;4.45;;;;;;;;;;5104507;27;20100;-79
2022/04/24 11:26:02;;;;;;;11.25;4.30;;;;;;;;;;5100656;27;20044;-80
2022/04/24 11:28:34;;;;;;;36.78;5.65;;;;;;;;;;5107022;27;20440;-79
2022/04/24 11:31:09;;;;;;;27.95;5.28;;;;;;;;;;5107693;27;20046;-79
2022/04/24 11:33:36;;;;;;;28.25;6.00;;;;;;;;;;5101708;27;20055;-82
2022/04/24 11:36:06;;;;;;;34.70;7.68;;;;;;;;;;5106141;27;20445;-77
2022/04/24 11:38:33;;;;;;;30.65;5.88;;;;;;;;;;5102913;28;20047;-84
2022/04/24 11:41:03;;;;;;;25.08;5.72;;;;;;;;;;5107496;28;20050;-80
2022/04/24 11:43:29;;;;;;;50.72;6.47;;;;;;;;;;5104719;27;20085;-78
2022/04/24 11:51:26;;;;;;;6.40;3.58;;;;;;;;;;5094453;28;20130;-84
2022/04/24 11:53:54;;;;;;;4.85;3.25;;;;;;;;;;5106958;28;20039;-79
2022/04/24 11:56:20;;;;;;;7.22;3.35;;;;;;;;;;5104335;28;20509;-84
2022/04/24 11:58:48;;;;;;;6.28;4.00;;;;;;;;;;5108808;27;20441;-80
2022/04/24 12:01:14;;;;;;;11.02;3.30;;;;;;;;;;5106616;28;20114;-78
2022/04/24 12:03:44;;;;;;;5.82;3.63;;;;;;;;;;5104699;28;20051;-78
2022/04/24 12:06:11;;;;;;;8.82;3.60;;;;;;;;;;5106877;28;20063;-79
2022/04/24 12:08:43;;;;;;;8.90;3.75;;;;;;;;;;5105619;28;20099;-78
2022/04/24 12:11:10;;;;;;;14.68;4.55;;;;;;;;;;5105594;28;20036;-78
2022/04/24 12:13:36;;;;;;;15.23;4.20;;;;;;;;;;5105276;28;20096;-80
2022/04/24 12:16:02;;;;;;;14.38;4.50;;;;;;;;;;5107132;28;20035;-80
2022/04/24 12:18:28;;;;;;;12.27;4.57;;;;;;;;;;5105973;28;20086;-79
2022/04/24 12:20:55;;;;;;;5.18;3.45;;;;;;;;;;5104851;28;20048;-79
2022/04/24 12:23:23;;;;;;;16.50;4.40;;;;;;;;;;5106877;28;20044;-78
2022/04/24 12:26:10;;;;;;;12.32;3.70;;;;;;;;;;5105574;28;20043;-78
2022/04/24 12:28:39;;;;;;;10.25;4.13;;;;;;;;;;5105203;28;20139;-78
2022/04/24 12:31:06;;;;;;;10.80;4.05;;;;;;;;;;5105461;28;20054;-78
2022/04/24 12:33:33;;;;;;;11.95;4.15;;;;;;;;;;5101131;28;20086;-78
2022/04/24 12:36:09;;;;;;;17.05;5.00;;;;;;;;;;5107485;28;20104;-79
2022/04/24 12:38:36;;;;;;;14.32;4.30;;;;;;;;;;5087739;28;20047;-78
2022/04/24 12:41:02;;;;;;;13.88;4.32;;;;;;;;;;5108914;27;20035;-81
2022/04/24 12:43:29;;;;;;;14.57;4.43;;;;;;;;;;5101428;27;20055;-80
2022/04/24 12:45:55;;;;;;;30.40;5.43;;;;;;;;;;5092548;28;20051;-78
2022/04/24 12:48:23;;;;;;;45.05;6.25;;;;;;;;;;5096803;28;20101;-79
2022/04/24 12:50:50;;;;;;;28.23;4.85;;;;;;;;;;5096036;28;20047;-80
2022/04/24 12:53:16;;;;;;;18.80;5.38;;;;;;;;;;5103878;28;20051;-79
2022/04/24 12:55:43;;;;;;;26.98;5.50;;;;;;;;;;5096664;28;20033;-79
2022/04/24 12:58:14;;;;;;;44.45;5.60;;;;;;;;;;5103960;28;20464;-78
2022/04/24 13:00:40;;;;;;;110.93;10.65;;;;;;;;;;5102836;28;20032;-78
2022/04/24 13:03:08;;;;;;;67.47;7.82;;;;;;;;;;5110096;27;20563;-78
2022/04/24 13:05:37;;;;;;;92.68;9.10;;;;;;;;;;5097953;28;20050;-79
2022/04/24 13:08:03;;;;;;;83.13;7.65;;;;;;;;;;5097728;28;20047;-78
2022/04/24 13:10:29;;;;;;;55.70;7.22;;;;;;;;;;5100471;28;20458;-76
2022/04/24 13:13:02;;;;;;;37.22;5.60;;;;;;;;;;5104807;28;20069;-78
2022/04/24 13:15:31;;;;;;;32.88;5.88;;;;;;;;;;5103113;28;20040;-78
2022/04/24 13:18:10;;;;;;;49.05;5.88;;;;;;;;;;5104594;28;20042;-81
2022/04/24 13:20:43;;;;;;;19.95;4.22;;;;;;;;;;5101686;28;21699;-80
2022/04/24 13:23:13;;;;;;;22.30;3.65;;;;;;;;;;5106058;28;20046;-87
2022/04/24 13:25:41;;;;;;;10.50;3.78;;;;;;;;;;5103507;28;21059;-84
2022/04/24 13:28:08;;;;;;;8.35;3.22;;;;;;;;;;5105616;28;20050;-87
2022/04/24 13:30:35;;;;;;;11.05;3.60;;;;;;;;;;5102743;28;20067;-78
2022/04/24 13:33:01;;;;;;;21.63;3.97;;;;;;;;;;5104184;28;21918;-79
2022/04/24 13:35:28;;;;;;;15.65;4.18;;;;;;;;;;5100784;28;20511;-79
2022/04/24 13:40:39;;;;;;;10.48;4.53;;;;;;;;;;5097851;28;20073;-85
2022/04/24 13:43:06;;;;;;;13.15;3.25;;;;;;;;;;5118148;28;20150;-83
2022/04/24 13:45:36;;;;;;;10.20;3.15;;;;;;;;;;5118540;28;20071;-79
2022/04/24 13:48:06;;;;;;;11.02;4.05;;;;;;;;;;5118539;28;20056;-79
2022/04/24 13:50:35;;;;;;;12.13;3.05;;;;;;;;;;5107187;28;20046;-78
2022/04/24 13:53:01;;;;;;;8.70;3.00;;;;;;;;;;5098509;28;20040;-80
2022/04/24 13:55:28;;;;;;;9.68;3.05;;;;;;;;;;5104356;28;20169;-79
2022/04/24 13:57:55;;;;;;;7.18;3.38;;;;;;;;;;5100853;28;20035;-78
2022/04/24 14:00:22;;;;;;;11.35;4.70;;;;;;;;;;5104184;28;20040;-79
2022/04/24 14:02:49;;;;;;;5.63;3.35;;;;;;;;;;5098966;28;20055;-79
2022/04/24 14:05:15;;;;;;;6.65;2.92;;;;;;;;;;5103417;28;20089;-87
2022/04/24 14:07:41;;;;;;;8.07;2.78;;;;;;;;;;5106619;27;20039;-79
2022/04/24 14:10:07;;;;;;;7.88;2.72;;;;;;;;;;5106215;27;20031;-79
2022/04/24 14:12:34;;;;;;;8.38;2.88;;;;;;;;;;5106928;27;20127;-80
2022/04/24 14:15:00;;;;;;;7.03;3.10;;;;;;;;;;5100894;27;20050;-85
2022/04/24 14:17:26;;;;;;;12.32;3.05;;;;;;;;;;5105371;28;20104;-80
2022/04/24 14:19:53;;;;;;;8.30;3.05;;;;;;;;;;5102576;28;20035;-83
2022/04/24 14:22:19;;;;;;;5.90;2.47;;;;;;;;;;5103663;28;20098;-88
2022/04/24 14:24:46;;;;;;;6.65;3.00;;;;;;;;;;5102109;28;20073;-82
2022/04/24 14:27:17;;;;;;;7.70;2.97;;;;;;;;;;5106948;27;20543;-82
2022/04/24 14:29:43;;;;;;;8.52;2.70;;;;;;;;;;5107586;27;20073;-80
2022/04/24 14:32:14;;;;;;;5.00;2.55;;;;;;;;;;5099084;28;20039;-79
2022/04/24 14:34:43;;;;;;;5.07;2.40;;;;;;;;;;5105821;27;20499;-81
2022/04/24 14:37:10;;;;;;;5.93;2.55;;;;;;;;;;5102876;27;20059;-86
2022/04/24 14:39:36;;;;;;;5.18;2.92;;;;;;;;;;5104799;27;20051;-80
2022/04/24 14:42:04;;;;;;;5.40;2.72;;;;;;;;;;5108339;28;20051;-80
2022/04/24 14:44:32;;;;;;;5.05;2.63;;;;;;;;;;5107482;28;20035;-79